createdAt,value
2022-09-15T00:00:58.088Z,20.65
2022-09-15T00:03:24.858Z,20.64
2022-09-15T00:05:52.739Z,20.68
2022-09-15T00:08:19.166Z,20.64
2022-09-15T00:10:49.909Z,20.62
2022-09-15T00:13:16.989Z,20.61
2022-09-15T00:15:43.409Z,20.64
2022-09-15T00:18:10.092Z,20.63
2022-09-15T00:20:39.723Z,20.56
2022-09-15T00:23:06.157Z,20.47
2022-09-15T00:25:32.649Z,20.43
2022-09-15T00:27:59.546Z,20.32
2022-09-15T00:30:26.031Z,20.33
2022-09-15T00:32:52.642Z,20.36
2022-09-15T00:35:19.166Z,20.34
2022-09-15T00:37:45.614Z,20.31
2022-09-15T00:40:12.181Z,20.31
2022-09-15T00:42:38.650Z,20.33
2022-09-15T00:45:05.462Z,20.34
2022-09-15T00:47:35.208Z,20.38
2022-09-15T00:50:11.024Z,20.43
2022-09-15T00:52:44.175Z,20.43
2022-09-15T00:55:23.836Z,20.42
2022-09-15T00:57:59.696Z,20.45
2022-09-15T01:00:30.341Z,20.48
2022-09-15T01:02:57.305Z,20.52
2022-09-15T01:05:26.688Z,20.54
2022-09-15T01:08:01.730Z,20.54
2022-09-15T01:10:30.246Z,20.44
2022-09-15T01:12:57.865Z,20.41
2022-09-15T01:15:27.096Z,20.43
2022-09-15T01:18:02.606Z,20.44
2022-09-15T01:20:29.288Z,20.43
2022-09-15T01:23:22.176Z,20.43
2022-09-15T01:26:04.435Z,20.51
2022-09-15T01:28:36.999Z,20.52
2022-09-15T01:31:03.441Z,20.58
2022-09-15T01:33:32.883Z,20.64
2022-09-15T01:36:11.321Z,20.63
2022-09-15T01:38:42.544Z,20.64
2022-09-15T01:41:25.287Z,20.67
2022-09-15T01:43:51.834Z,20.70
2022-09-15T01:46:20.045Z,20.62
2022-09-15T01:48:47.970Z,20.63
2022-09-15T01:51:16.445Z,20.59
2022-09-15T01:53:43.330Z,20.62
2022-09-15T01:56:10.944Z,20.65
2022-09-15T01:58:38.745Z,20.68
2022-09-15T02:01:18.049Z,20.73
2022-09-15T02:03:48.794Z,20.70
2022-09-15T02:06:33.752Z,20.74
2022-09-15T02:09:02.961Z,20.74
2022-09-15T02:11:30.343Z,20.72
2022-09-15T02:13:56.829Z,20.69
2022-09-15T02:16:30.188Z,20.64
2022-09-15T02:18:58.063Z,20.58
2022-09-15T02:21:29.795Z,20.59
2022-09-15T02:24:03.404Z,20.60
2022-09-15T02:26:32.180Z,20.62
2022-09-15T02:28:59.931Z,20.63
2022-09-15T02:31:27.046Z,20.53
2022-09-15T02:33:57.378Z,20.42
2022-09-15T02:36:25.196Z,20.29
2022-09-15T02:38:58.126Z,20.29
2022-09-15T02:41:24.594Z,20.27
2022-09-15T02:43:51.227Z,20.35
2022-09-15T02:46:19.319Z,20.43
2022-09-15T02:48:45.853Z,20.43
2022-09-15T02:51:12.409Z,20.48
2022-09-15T02:53:38.875Z,20.53
2022-09-15T02:56:06.549Z,20.59
2022-09-15T02:58:33.409Z,20.62
2022-09-15T03:01:06.624Z,20.59
2022-09-15T03:03:33.578Z,20.51
2022-09-15T03:06:16.378Z,20.53
2022-09-15T03:08:51.225Z,20.56
2022-09-15T03:11:19.263Z,20.59
2022-09-15T03:13:46.315Z,20.51
2022-09-15T03:16:14.285Z,20.54
2022-09-15T03:18:41.376Z,20.51
2022-09-15T03:21:08.961Z,20.51
2022-09-15T03:23:36.047Z,20.56
2022-09-15T03:26:03.253Z,20.61
2022-09-15T03:28:29.968Z,20.61
2022-09-15T03:30:56.423Z,20.65
2022-09-15T03:33:23.557Z,20.66
2022-09-15T03:35:50.716Z,20.57
2022-09-15T03:38:17.657Z,20.36
2022-09-15T03:40:44.245Z,20.18
2022-09-15T03:43:14.282Z,20.06
2022-09-15T03:45:43.178Z,20.00
2022-09-15T03:48:09.645Z,19.96
2022-09-15T03:50:36.245Z,19.95
2022-09-15T03:53:02.871Z,19.94
2022-09-15T03:55:29.441Z,19.99
2022-09-15T03:57:55.879Z,20.04
2022-09-15T04:00:22.814Z,20.17
2022-09-15T04:02:49.284Z,20.26
2022-09-15T04:05:15.944Z,20.35
2022-09-15T04:07:42.476Z,20.43
2022-09-15T04:10:09.745Z,20.47
2022-09-15T04:12:36.378Z,20.42
2022-09-15T04:15:04.003Z,20.32
2022-09-15T04:17:30.525Z,20.23
2022-09-15T04:19:57.038Z,20.14
2022-09-15T04:22:23.885Z,19.93
2022-09-15T04:24:50.375Z,19.78
2022-09-15T04:27:17.187Z,19.76
2022-09-15T04:29:43.971Z,19.82
2022-09-15T04:32:10.621Z,19.80
2022-09-15T04:34:41.224Z,19.82
2022-09-15T04:37:07.946Z,19.84
2022-09-15T04:39:34.583Z,19.84
2022-09-15T04:42:05.097Z,19.88
2022-09-15T04:44:32.318Z,19.92
2022-09-15T04:46:59.393Z,19.86
2022-09-15T04:49:25.910Z,19.72
2022-09-15T04:51:53.733Z,19.63
2022-09-15T04:54:20.535Z,19.68
2022-09-15T04:56:47.396Z,19.80
2022-09-15T04:59:15.355Z,19.87
2022-09-15T05:01:42.110Z,19.89
2022-09-15T05:04:08.589Z,19.91
2022-09-15T05:06:35.350Z,19.90
2022-09-15T05:09:05.408Z,19.89
2022-09-15T05:11:35.753Z,19.90
2022-09-15T05:14:02.197Z,19.78
2022-09-15T05:16:29.506Z,19.61
2022-09-15T05:18:59.041Z,19.50
2022-09-15T05:21:26.119Z,19.45
2022-09-15T05:23:52.794Z,19.38
2022-09-15T05:26:21.487Z,19.31
2022-09-15T05:28:48.088Z,19.22
2022-09-15T05:31:22.045Z,19.14
2022-09-15T05:33:49.338Z,19.09
2022-09-15T05:36:17.333Z,19.08
2022-09-15T05:38:44.111Z,19.05
2022-09-15T05:41:12.115Z,18.99
2022-09-15T05:43:39.527Z,18.97
2022-09-15T05:46:06.699Z,18.96
2022-09-15T05:48:34.038Z,18.96
2022-09-15T05:51:00.634Z,18.97
2022-09-15T05:53:27.138Z,18.97
2022-09-15T05:55:57.457Z,18.92
2022-09-15T05:58:24.248Z,18.95
2022-09-15T06:00:50.996Z,18.93
2022-09-15T06:03:17.551Z,18.88
2022-09-15T06:05:44.072Z,18.85
2022-09-15T06:08:10.931Z,18.78
2022-09-15T06:10:37.445Z,18.67
2022-09-15T06:13:03.940Z,18.63
2022-09-15T06:15:30.933Z,18.55
2022-09-15T06:17:57.519Z,18.52
2022-09-15T06:20:25.429Z,18.55
2022-09-15T06:22:52.966Z,18.66
2022-09-15T06:25:19.570Z,18.73
2022-09-15T06:27:48.841Z,18.75
2022-09-15T06:30:15.481Z,18.76
2022-09-15T06:32:45.154Z,18.75
2022-09-15T06:35:15.156Z,18.77
2022-09-15T06:37:41.689Z,18.77
2022-09-15T06:40:08.525Z,18.74
2022-09-15T06:42:35.036Z,18.67
2022-09-15T06:45:01.820Z,18.63
2022-09-15T06:47:33.760Z,18.61
2022-09-15T06:50:00.723Z,18.55
2022-09-15T06:52:27.294Z,18.49
2022-09-15T06:54:53.777Z,18.36
2022-09-15T06:57:20.330Z,18.23
2022-09-15T06:59:48.378Z,18.16
2022-09-15T07:02:15.086Z,18.13
2022-09-15T07:04:41.701Z,18.18
2022-09-15T07:07:08.527Z,18.24
2022-09-15T07:09:35.064Z,18.33
2022-09-15T07:12:01.796Z,18.37
2022-09-15T07:14:28.352Z,18.50
2022-09-15T07:16:54.852Z,18.59
2022-09-15T07:19:21.404Z,18.61
2022-09-15T07:21:47.941Z,18.75
2022-09-15T07:24:14.948Z,18.85
2022-09-15T07:26:41.968Z,18.95
2022-09-15T07:29:09.713Z,19.05
2022-09-15T07:31:36.889Z,19.19
2022-09-15T07:34:04.085Z,19.26
2022-09-15T07:36:31.000Z,19.37
2022-09-15T07:38:57.526Z,19.48
2022-09-15T07:41:25.444Z,19.64
2022-09-15T07:43:52.957Z,19.75
2022-09-15T07:46:20.456Z,19.75
2022-09-15T07:48:47.761Z,19.81
2022-09-15T07:51:15.132Z,19.90
2022-09-15T07:53:41.981Z,19.97
2022-09-15T07:56:08.553Z,20.17
2022-09-15T07:58:35.063Z,20.26
2022-09-15T08:01:05.757Z,20.17
2022-09-15T08:03:32.382Z,20.18
2022-09-15T08:05:59.476Z,20.23
2022-09-15T08:08:25.974Z,20.30
2022-09-15T08:10:52.923Z,20.37
2022-09-15T08:13:19.520Z,20.42
2022-09-15T08:15:46.415Z,20.44
2022-09-15T08:18:12.923Z,20.43
2022-09-15T08:20:40.511Z,20.51
2022-09-15T08:23:07.871Z,20.66
2022-09-15T08:25:34.367Z,20.84
2022-09-15T08:28:01.227Z,20.99
2022-09-15T08:30:27.938Z,21.04
2022-09-15T08:32:54.370Z,21.23
2022-09-15T08:35:20.987Z,21.31
2022-09-15T08:37:47.515Z,21.28
2022-09-15T08:40:19.770Z,21.30
2022-09-15T08:42:48.290Z,21.39
2022-09-15T08:45:25.957Z,21.54
2022-09-15T08:47:56.274Z,21.60
2022-09-15T08:50:28.349Z,21.61
2022-09-15T08:53:18.091Z,21.54
2022-09-15T08:56:11.215Z,21.35
2022-09-15T08:58:37.936Z,21.46
2022-09-15T09:01:10.613Z,21.59
2022-09-15T09:03:56.677Z,21.67
2022-09-15T09:06:38.320Z,21.78
2022-09-15T09:09:04.981Z,21.75
2022-09-15T09:11:34.467Z,21.81
2022-09-15T09:14:14.050Z,21.96
2022-09-15T09:16:40.464Z,22.25
2022-09-15T09:19:16.148Z,22.54
2022-09-15T09:21:47.085Z,22.77
2022-09-15T09:24:13.505Z,22.87
2022-09-15T09:26:40.301Z,22.87
2022-09-15T09:29:13.578Z,22.76
2022-09-15T09:31:40.821Z,22.57
2022-09-15T09:34:07.271Z,22.38
2022-09-15T09:36:33.839Z,22.29
2022-09-15T09:39:01.838Z,22.31
2022-09-15T09:41:35.727Z,22.27
2022-09-15T09:44:03.819Z,22.36
2022-09-15T09:46:31.579Z,22.38
2022-09-15T09:49:03.217Z,22.41
2022-09-15T09:51:31.292Z,22.59
2022-09-15T09:54:03.780Z,22.83
2022-09-15T09:56:30.240Z,22.98
2022-09-15T09:58:56.976Z,22.93
2022-09-15T10:01:25.029Z,22.82
2022-09-15T10:04:14.944Z,22.69
2022-09-15T10:06:41.594Z,22.43
2022-09-15T10:09:16.259Z,22.44
2022-09-15T10:11:42.733Z,22.52
2022-09-15T10:14:19.846Z,22.56
2022-09-15T10:16:56.409Z,22.55
2022-09-15T10:19:23.345Z,22.63
2022-09-15T10:21:50.043Z,22.74
2022-09-15T10:24:36.388Z,22.93
2022-09-15T10:27:27.079Z,22.82
2022-09-15T10:29:54.085Z,22.63
2022-09-15T10:32:28.569Z,22.49
2022-09-15T10:34:59.079Z,22.45
2022-09-15T10:37:35.954Z,22.62
2022-09-15T10:40:25.453Z,22.94
2022-09-15T10:42:53.662Z,23.39
2022-09-15T10:45:33.497Z,23.81
2022-09-15T10:48:16.339Z,24.38
2022-09-15T10:50:55.175Z,24.78
2022-09-15T10:53:32.884Z,24.90
2022-09-15T10:56:05.400Z,24.95
2022-09-15T10:58:43.527Z,24.85
2022-09-15T11:01:30.272Z,24.99
2022-09-15T11:04:15.288Z,27.19
2022-09-15T11:06:48.773Z,29.55
2022-09-15T11:09:27.322Z,31.33
2022-09-15T11:11:56.845Z,33.16
2022-09-15T11:14:44.778Z,35.27
2022-09-15T11:17:24.097Z,37.74
2022-09-15T11:19:53.905Z,40.16
2022-09-15T11:22:24.580Z,41.03
2022-09-15T11:24:57.808Z,38.67
2022-09-15T11:27:31.339Z,34.99
2022-09-15T11:30:01.285Z,32.19
2022-09-15T11:32:34.296Z,30.03
2022-09-15T11:35:16.391Z,28.36
2022-09-15T11:37:45.810Z,29.91
2022-09-15T11:40:15.854Z,33.75
2022-09-15T11:42:47.970Z,36.79
2022-09-15T11:45:17.667Z,38.65
2022-09-15T11:47:46.882Z,39.93
2022-09-15T11:50:19.804Z,41.00
2022-09-15T11:52:58.608Z,39.89
2022-09-15T11:55:37.638Z,37.16
2022-09-15T11:58:21.625Z,37.93
2022-09-15T12:01:04.241Z,39.18
2022-09-15T12:03:50.608Z,37.20
2022-09-15T12:06:21.543Z,37.45
2022-09-15T12:09:00.788Z,36.93
2022-09-15T12:11:30.307Z,35.20
2022-09-15T12:13:57.371Z,35.67
2022-09-15T12:16:24.297Z,35.40
2022-09-15T12:18:53.843Z,33.08
2022-09-15T12:21:31.215Z,32.80
2022-09-15T12:24:02.782Z,31.35
2022-09-15T12:26:32.619Z,30.15
2022-09-15T12:29:03.558Z,29.48
2022-09-15T12:31:31.728Z,28.95
2022-09-15T12:33:59.752Z,28.25
2022-09-15T12:36:30.843Z,27.57
2022-09-15T12:38:58.483Z,27.08
2022-09-15T12:41:25.180Z,26.55
2022-09-15T12:44:17.800Z,26.07
2022-09-15T12:46:50.774Z,25.53
2022-09-15T12:49:20.239Z,25.17
2022-09-15T12:51:50.802Z,24.81
2022-09-15T12:54:21.842Z,24.78
2022-09-15T12:56:51.932Z,24.78
2022-09-15T12:59:22.780Z,24.59
2022-09-15T13:01:50.378Z,24.50
2022-09-15T13:04:35.728Z,24.57
2022-09-15T13:07:28.654Z,25.22
2022-09-15T13:10:13.462Z,25.60
2022-09-15T13:12:43.446Z,25.34
2022-09-15T13:15:14.596Z,25.22
2022-09-15T13:17:44.296Z,25.37
2022-09-15T13:20:15.509Z,25.37
2022-09-15T13:22:45.476Z,25.15
2022-09-15T13:25:15.670Z,25.11
2022-09-15T13:27:43.714Z,25.14
2022-09-15T13:30:30.963Z,25.40
2022-09-15T13:33:16.460Z,25.38
2022-09-15T13:35:52.423Z,25.27
2022-09-15T13:38:31.931Z,25.21
2022-09-15T13:41:18.258Z,25.16
2022-09-15T13:43:59.626Z,25.04
2022-09-15T13:46:35.399Z,25.07
2022-09-15T13:49:14.476Z,25.23
2022-09-15T13:51:43.616Z,25.29
2022-09-15T13:54:18.823Z,25.39
2022-09-15T13:56:47.350Z,25.52
2022-09-15T13:59:19.588Z,25.46
2022-09-15T14:01:46.582Z,25.43
2022-09-15T14:04:17.736Z,25.25
2022-09-15T14:06:45.836Z,25.02
2022-09-15T14:09:15.224Z,24.95
2022-09-15T14:11:42.829Z,24.97
2022-09-15T14:14:27.571Z,24.91
2022-09-15T14:16:55.073Z,24.99
2022-09-15T14:19:21.619Z,24.81
2022-09-15T14:21:53.834Z,24.73
2022-09-15T14:24:26.993Z,24.50
2022-09-15T14:26:53.518Z,24.42
2022-09-15T14:29:21.609Z,24.46
2022-09-15T14:31:49.082Z,24.54
2022-09-15T14:34:21.018Z,24.45
2022-09-15T14:36:58.279Z,24.43
2022-09-15T14:39:24.763Z,24.41
2022-09-15T14:41:51.428Z,24.20
2022-09-15T14:47:21.766Z,24.10
2022-09-15T14:49:49.012Z,24.20
2022-09-15T14:52:27.205Z,24.27
2022-09-15T14:54:56.781Z,24.24
2022-09-15T14:57:28.726Z,24.18
2022-09-15T14:59:59.804Z,24.05
2022-09-15T15:02:35.624Z,24.08
2022-09-15T15:05:08.683Z,23.94
2022-09-15T15:07:37.374Z,23.89
2022-09-15T15:10:06.087Z,23.82
2022-09-15T15:12:52.324Z,23.76
2022-09-15T15:15:18.925Z,23.64
2022-09-15T15:17:49.383Z,23.50
2022-09-15T15:20:16.021Z,23.28
2022-09-15T15:22:43.396Z,23.19
2022-09-15T15:25:23.740Z,23.18
2022-09-15T15:27:54.901Z,23.24
2022-09-15T15:30:35.249Z,23.23
2022-09-15T15:33:03.705Z,23.27
2022-09-15T15:35:30.783Z,23.27
2022-09-15T15:38:03.310Z,23.27
2022-09-15T15:40:30.095Z,23.26
2022-09-15T15:43:00.885Z,23.29
2022-09-15T15:45:29.755Z,23.32
2022-09-15T15:47:56.572Z,23.16
2022-09-15T15:50:24.756Z,22.91
2022-09-15T15:52:52.054Z,22.88
2022-09-15T15:55:22.789Z,22.88
2022-09-15T15:57:51.093Z,22.85
2022-09-15T16:00:21.303Z,22.84
2022-09-15T16:02:48.284Z,22.81
2022-09-15T16:05:14.988Z,22.82
2022-09-15T16:07:42.670Z,22.79
2022-09-15T16:10:14.653Z,22.79
2022-09-15T16:12:41.167Z,22.79
2022-09-15T16:15:15.340Z,22.80
2022-09-15T16:17:45.980Z,22.80
2022-09-15T16:20:15.978Z,22.64
2022-09-15T16:22:43.278Z,22.52
2022-09-15T16:25:17.812Z,22.47
2022-09-15T16:27:45.367Z,22.44
2022-09-15T16:30:14.919Z,22.36
2022-09-15T16:32:41.505Z,22.33
2022-09-15T16:35:31.488Z,22.30
2022-09-15T16:37:57.992Z,22.29
2022-09-15T16:40:24.631Z,22.29
2022-09-15T16:42:51.276Z,22.28
2022-09-15T16:45:23.233Z,22.28
2022-09-15T16:47:49.727Z,22.29
2022-09-15T16:50:16.283Z,22.29
2022-09-15T16:52:42.784Z,22.28
2022-09-15T16:55:20.441Z,22.26
2022-09-15T16:57:46.975Z,22.17
2022-09-15T17:00:13.788Z,22.04
2022-09-15T17:02:40.357Z,21.95
2022-09-15T17:05:15.421Z,21.89
2022-09-15T17:07:42.106Z,21.86
2022-09-15T17:10:08.650Z,21.82
2022-09-15T17:12:36.254Z,21.74
2022-09-15T17:15:02.876Z,21.65
2022-09-15T17:17:29.311Z,21.57
2022-09-15T17:19:55.722Z,21.52
2022-09-15T17:22:23.263Z,21.46
2022-09-15T17:24:49.723Z,21.42
2022-09-15T17:27:16.288Z,21.41
2022-09-15T17:29:42.753Z,21.36
2022-09-15T17:32:09.219Z,21.29
2022-09-15T17:34:38.002Z,21.22
2022-09-15T17:37:04.462Z,21.14
2022-09-15T17:39:33.537Z,21.02
2022-09-15T17:41:59.987Z,20.94
2022-09-15T17:44:26.471Z,20.91
2022-09-15T17:46:53.159Z,20.92
2022-09-15T17:49:19.689Z,20.92
2022-09-15T17:51:46.123Z,20.91
2022-09-15T17:54:13.279Z,20.94
2022-09-15T17:56:39.762Z,21.01
2022-09-15T17:59:06.345Z,21.06
2022-09-15T18:01:32.937Z,21.10
2022-09-15T18:03:59.455Z,21.15
2022-09-15T18:06:25.949Z,21.12
2022-09-15T18:08:52.524Z,21.11
2022-09-15T18:11:19.250Z,21.00
2022-09-15T18:13:45.903Z,20.92
2022-09-15T18:16:13.761Z,20.85
2022-09-15T18:18:40.990Z,20.81
2022-09-15T18:21:09.534Z,20.76
2022-09-15T18:23:37.505Z,20.75
2022-09-15T18:26:03.999Z,20.78
2022-09-15T18:28:30.515Z,20.79
2022-09-15T18:30:57.195Z,20.80
2022-09-15T18:33:24.505Z,20.84
2022-09-15T18:35:52.286Z,20.84
2022-09-15T18:38:19.232Z,20.88
2022-09-15T18:40:46.959Z,20.96
2022-09-15T18:43:13.553Z,21.00
2022-09-15T18:45:40.569Z,21.01
2022-09-15T18:48:11.924Z,20.95
2022-09-15T18:50:39.871Z,20.92
2022-09-15T18:53:06.516Z,20.92
2022-09-15T18:55:32.995Z,20.88
2022-09-15T18:58:01.185Z,20.91
2022-09-15T19:00:28.676Z,20.86
2022-09-15T19:02:59.410Z,20.82
2022-09-15T19:05:27.327Z,20.83
2022-09-15T19:07:54.036Z,20.83
2022-09-15T19:10:20.546Z,20.85
2022-09-15T19:12:47.106Z,20.87
2022-09-15T19:15:14.055Z,20.85
2022-09-15T19:17:40.844Z,20.84
2022-09-15T19:20:08.439Z,20.86
2022-09-15T19:22:35.292Z,20.91
2022-09-15T19:25:01.737Z,20.95
2022-09-15T19:27:28.284Z,20.97
2022-09-15T19:29:54.829Z,20.97
2022-09-15T19:32:22.126Z,20.98
2022-09-15T19:34:50.090Z,20.96
2022-09-15T19:37:18.945Z,20.96
2022-09-15T19:39:46.452Z,20.95
2022-09-15T19:42:13.307Z,20.93
2022-09-15T19:44:41.110Z,20.93
2022-09-15T19:47:07.757Z,20.94
2022-09-15T19:49:34.413Z,20.90
2022-09-15T19:52:00.961Z,20.88
2022-09-15T19:54:28.762Z,20.88
2022-09-15T19:56:56.097Z,20.87
2022-09-15T19:59:26.289Z,20.81
2022-09-15T20:01:55.370Z,20.71
2022-09-15T20:04:21.964Z,20.62
2022-09-15T20:06:48.632Z,20.55
2022-09-15T20:09:15.233Z,20.46
2022-09-15T20:11:41.824Z,20.32
2022-09-15T20:14:08.362Z,20.14
2022-09-15T20:16:35.136Z,20.00
2022-09-15T20:19:03.696Z,19.94
2022-09-15T20:21:49.418Z,19.85
2022-09-15T20:24:17.139Z,19.73
2022-09-15T20:26:43.723Z,19.66
2022-09-15T20:29:10.462Z,19.62
2022-09-15T20:31:36.932Z,19.64
2022-09-15T20:34:03.517Z,19.61
2022-09-15T20:36:33.152Z,19.64
2022-09-15T20:39:00.620Z,19.67
2022-09-15T20:41:28.412Z,19.63
2022-09-15T20:43:55.187Z,19.62
2022-09-15T20:46:22.528Z,19.59
2022-09-15T20:48:50.136Z,19.55
2022-09-15T20:51:20.156Z,19.54
2022-09-15T20:53:47.642Z,19.53
2022-09-15T20:56:14.855Z,19.51
2022-09-15T20:58:41.642Z,19.48
2022-09-15T21:01:09.851Z,19.47
2022-09-15T21:03:37.329Z,19.43
2022-09-15T21:06:05.379Z,19.43
2022-09-15T21:08:32.234Z,19.37
2022-09-15T21:10:59.379Z,19.34
2022-09-15T21:13:29.993Z,19.42
2022-09-15T21:15:58.368Z,19.47
2022-09-15T21:18:25.723Z,19.46
2022-09-15T21:20:56.319Z,19.44
2022-09-15T21:23:23.030Z,19.42
2022-09-15T21:26:01.679Z,19.43
2022-09-15T21:28:28.760Z,19.39
2022-09-15T21:31:06.079Z,19.34
2022-09-15T21:33:32.991Z,19.32
2022-09-15T21:36:03.529Z,19.34
2022-09-15T21:38:30.124Z,19.34
2022-09-15T21:40:56.558Z,19.29
2022-09-15T21:43:23.089Z,19.29
2022-09-15T21:45:54.379Z,19.30
2022-09-15T21:48:21.045Z,19.33
2022-09-15T21:50:51.389Z,19.33
2022-09-15T21:53:20.111Z,19.34
2022-09-15T21:55:52.833Z,19.31
2022-09-15T21:58:19.971Z,19.31
2022-09-15T22:00:47.203Z,19.31
2022-09-15T22:03:14.056Z,19.32
2022-09-15T22:05:41.015Z,19.28
2022-09-15T22:08:08.776Z,19.27
2022-09-15T22:10:35.615Z,19.23
2022-09-15T22:13:02.117Z,19.16
2022-09-15T22:15:28.585Z,19.15
2022-09-15T22:17:55.018Z,19.14
2022-09-15T22:20:22.410Z,19.12
2022-09-15T22:22:48.919Z,19.11
2022-09-15T22:25:19.790Z,19.12
2022-09-15T22:27:48.227Z,19.11
2022-09-15T22:30:14.701Z,19.11
2022-09-15T22:32:41.236Z,19.10
2022-09-15T22:35:07.846Z,19.06
2022-09-15T22:37:34.596Z,19.06
2022-09-15T22:40:01.158Z,19.04
2022-09-15T22:42:27.911Z,18.99
2022-09-15T22:44:54.301Z,18.90
2022-09-15T22:47:20.760Z,18.90
2022-09-15T22:49:47.196Z,18.92
2022-09-15T22:52:13.594Z,18.90
2022-09-15T22:54:40.021Z,18.88
2022-09-15T22:57:07.157Z,18.88
2022-09-15T22:59:33.643Z,18.86
2022-09-15T23:02:00.285Z,18.78
2022-09-15T23:04:27.118Z,18.71
2022-09-15T23:06:53.571Z,18.65
2022-09-15T23:09:19.987Z,18.58
2022-09-15T23:11:46.410Z,18.55
2022-09-15T23:14:15.206Z,18.56
2022-09-15T23:16:42.656Z,18.59
2022-09-15T23:19:11.304Z,18.57
2022-09-15T23:21:37.735Z,18.55
2022-09-15T23:24:04.349Z,18.56
2022-09-15T23:26:30.929Z,18.52
2022-09-15T23:28:57.365Z,18.42
2022-09-15T23:31:23.839Z,18.37
2022-09-15T23:33:50.610Z,18.34
2022-09-15T23:36:21.161Z,18.39
2022-09-15T23:38:48.317Z,18.46
2022-09-15T23:41:15.802Z,18.53
2022-09-15T23:43:42.258Z,18.54
2022-09-15T23:46:08.779Z,18.54
2022-09-15T23:48:35.429Z,18.52
2022-09-15T23:51:02.384Z,18.54
2022-09-15T23:53:29.342Z,18.51
2022-09-15T23:55:56.109Z,18.48
2022-09-15T23:58:22.588Z,18.46
